createdAt,value
2023-02-01T00:02:19.090Z,7.16
2023-02-01T00:07:20.927Z,7.04
2023-02-01T00:12:22.754Z,7.00
2023-02-01T00:17:25.105Z,7.03
2023-02-01T00:22:26.939Z,7.02
2023-02-01T00:27:28.883Z,6.97
2023-02-01T00:32:32.992Z,7.05
2023-02-01T00:37:34.871Z,7.00
2023-02-01T00:42:36.811Z,6.83
2023-02-01T00:47:38.698Z,6.91
2023-02-01T00:52:40.556Z,6.89
2023-02-01T00:57:42.401Z,6.87
2023-02-01T01:02:44.250Z,6.88
2023-02-01T01:07:46.121Z,6.91
2023-02-01T01:12:48.227Z,6.88
2023-02-01T01:17:50.073Z,6.90
2023-02-01T01:22:51.934Z,6.87
2023-02-01T01:27:53.882Z,6.80
2023-02-01T01:32:55.752Z,6.82
2023-02-01T01:37:57.972Z,6.83
2023-02-01T01:43:00.150Z,6.81
2023-02-01T01:48:20.003Z,6.80
2023-02-01T01:53:28.828Z,6.76
2023-02-01T01:58:34.525Z,6.75
2023-02-01T02:03:43.407Z,6.72
2023-02-01T02:08:45.586Z,6.72
2023-02-01T02:13:55.193Z,6.74
2023-02-01T02:19:32.217Z,6.69
2023-02-01T02:24:48.060Z,6.74
2023-02-01T02:30:11.728Z,6.69
2023-02-01T02:35:37.546Z,6.72
2023-02-01T02:41:34.720Z,6.71
2023-02-01T02:47:01.512Z,6.69
2023-02-01T02:52:29.461Z,6.68
2023-02-01T02:57:54.786Z,6.66
2023-02-01T03:03:15.443Z,6.66
2023-02-01T03:08:20.847Z,6.62
2023-02-01T03:13:34.359Z,6.61
2023-02-01T03:18:52.084Z,6.62
2023-02-01T03:24:00.891Z,6.63
2023-02-01T03:29:15.246Z,6.61
2023-02-01T03:34:18.765Z,6.60
2023-02-01T03:39:35.803Z,6.63
2023-02-01T03:44:48.138Z,6.63
2023-02-01T03:49:58.790Z,6.62
2023-02-01T03:55:02.612Z,6.60
2023-02-01T04:00:12.831Z,6.66
2023-02-01T04:05:20.108Z,6.61
2023-02-01T04:10:30.037Z,6.64
2023-02-01T04:15:31.940Z,6.64
2023-02-01T04:20:33.804Z,6.72
2023-02-01T04:25:35.656Z,6.74
2023-02-01T04:30:37.625Z,6.76
2023-02-01T04:35:39.501Z,6.75
2023-02-01T04:40:41.325Z,6.78
2023-02-01T04:45:47.417Z,6.76
2023-02-01T04:50:49.812Z,6.78
2023-02-01T04:55:51.667Z,6.74
2023-02-01T05:00:53.563Z,6.72
2023-02-01T05:05:55.405Z,6.75
2023-02-01T05:10:57.482Z,6.76
2023-02-01T05:15:59.368Z,6.74
2023-02-01T05:21:02.108Z,6.72
2023-02-01T05:26:05.328Z,6.73
2023-02-01T05:31:11.702Z,6.75
2023-02-01T05:36:13.745Z,6.72
2023-02-01T05:41:15.645Z,6.72
2023-02-01T05:46:17.497Z,6.73
2023-02-01T05:51:19.488Z,6.74
2023-02-01T05:56:21.369Z,6.74
2023-02-01T06:01:23.234Z,6.75
2023-02-01T06:06:25.033Z,6.77
2023-02-01T06:11:34.298Z,6.77
2023-02-01T06:16:36.191Z,6.79
2023-02-01T06:21:38.182Z,6.80
2023-02-01T06:26:41.163Z,6.86
2023-02-01T06:31:43.920Z,6.86
2023-02-01T06:36:45.805Z,6.82
2023-02-01T06:41:51.502Z,6.86
2023-02-01T06:46:53.399Z,6.78
2023-02-01T06:51:55.288Z,6.78
2023-02-01T06:56:57.080Z,6.77
2023-02-01T07:01:58.970Z,6.70
2023-02-01T07:07:00.878Z,6.67
2023-02-01T07:12:02.715Z,6.64
2023-02-01T07:17:04.539Z,6.59
2023-02-01T07:22:06.427Z,6.57
2023-02-01T07:27:08.285Z,6.45
2023-02-01T07:32:10.265Z,6.28
2023-02-01T07:37:12.192Z,6.21
2023-02-01T07:42:14.036Z,6.10
2023-02-01T07:47:15.855Z,6.05
2023-02-01T07:52:17.884Z,6.05
2023-02-01T07:57:20.663Z,6.02
2023-02-01T08:02:22.511Z,6.07
2023-02-01T08:07:24.429Z,6.10
2023-02-01T08:12:26.560Z,6.08
2023-02-01T08:17:29.542Z,6.05
2023-02-01T08:22:34.382Z,6.06
2023-02-01T08:27:37.001Z,6.06
2023-02-01T08:32:39.173Z,6.03
2023-02-01T08:37:41.424Z,6.09
2023-02-01T08:42:52.289Z,6.20
2023-02-01T08:47:54.666Z,6.40
2023-02-01T08:52:56.603Z,6.52
2023-02-01T08:57:58.552Z,6.58
2023-02-01T09:03:00.437Z,6.68
2023-02-01T09:08:02.272Z,6.77
2023-02-01T09:13:04.263Z,6.77
2023-02-01T09:18:06.157Z,6.79
2023-02-01T09:23:08.486Z,6.76
2023-02-01T09:28:10.426Z,6.70
2023-02-01T09:33:12.277Z,6.64
2023-02-01T09:38:14.137Z,6.55
2023-02-01T09:43:23.951Z,6.46
2023-02-01T09:48:33.292Z,6.36
2023-02-01T09:53:39.625Z,6.11
2023-02-01T09:58:57.643Z,5.81
2023-02-01T10:04:06.442Z,5.58
2023-02-01T10:09:42.505Z,5.45
2023-02-01T10:15:15.413Z,5.36
2023-02-01T10:20:41.575Z,5.34
2023-02-01T10:25:57.466Z,5.37
2023-02-01T10:30:59.928Z,5.37
2023-02-01T10:36:18.097Z,5.40
2023-02-01T10:41:23.013Z,5.34
2023-02-01T10:46:25.730Z,5.34
2023-02-01T10:51:34.899Z,5.58
2023-02-01T10:56:39.449Z,5.81
2023-02-01T11:01:43.051Z,6.05
2023-02-01T11:06:46.745Z,6.30
2023-02-01T11:11:48.580Z,6.44
2023-02-01T11:17:01.186Z,6.57
2023-02-01T11:22:05.405Z,6.65
2023-02-01T11:27:18.858Z,6.76
2023-02-01T11:38:15.284Z,6.94
2023-02-01T11:43:29.941Z,7.04
2023-02-01T11:48:33.783Z,7.07
2023-02-01T11:53:54.451Z,7.12
2023-02-01T11:59:17.389Z,7.20
2023-02-01T12:04:19.164Z,7.26
2023-02-01T12:09:36.758Z,7.30
2023-02-01T12:14:41.609Z,7.30
2023-02-01T12:20:11.478Z,7.30
2023-02-01T12:25:37.632Z,7.24
2023-02-01T12:31:06.321Z,7.30
2023-02-01T12:36:39.680Z,7.28
2023-02-01T12:42:04.514Z,7.28
2023-02-01T12:47:21.634Z,7.37
2023-02-01T12:52:35.801Z,7.42
2023-02-01T12:57:43.913Z,7.48
2023-02-01T13:02:55.546Z,7.60
2023-02-01T13:08:32.815Z,7.69
2023-02-01T13:13:47.679Z,7.71
2023-02-01T13:18:53.305Z,7.75
2023-02-01T13:23:55.606Z,7.81
2023-02-01T13:29:17.996Z,7.89
2023-02-01T13:34:47.513Z,7.91
2023-02-01T13:40:17.929Z,7.93
2023-02-01T13:45:26.346Z,7.94
2023-02-01T13:50:31.723Z,7.97
2023-02-01T13:55:37.349Z,8.00
2023-02-01T14:00:41.402Z,7.99
2023-02-01T14:05:44.947Z,8.04
2023-02-01T14:10:48.507Z,8.08
2023-02-01T14:16:17.791Z,8.05
2023-02-01T14:21:35.155Z,8.03
2023-02-01T14:26:46.847Z,7.95
2023-02-01T14:32:03.892Z,7.91
2023-02-01T14:37:09.875Z,7.94
2023-02-01T14:42:23.506Z,7.93
2023-02-01T14:47:25.312Z,7.86
2023-02-01T14:52:46.170Z,7.81
2023-02-01T14:57:51.619Z,7.79
2023-02-01T15:02:55.470Z,7.81
2023-02-01T15:08:01.480Z,7.82
2023-02-01T15:13:03.335Z,7.83
2023-02-01T15:18:05.222Z,7.77
2023-02-01T15:23:18.047Z,7.64
2023-02-01T15:28:20.774Z,7.50
2023-02-01T15:33:22.755Z,7.41
2023-02-01T15:38:24.581Z,7.37
2023-02-01T15:43:28.395Z,7.33
2023-02-01T15:48:40.714Z,7.30
2023-02-01T15:53:48.214Z,7.22
2023-02-01T15:58:54.299Z,7.11
2023-02-01T16:04:16.226Z,6.98
2023-02-01T16:09:21.096Z,6.73
2023-02-01T16:14:24.107Z,6.37
2023-02-01T16:19:29.277Z,6.14
2023-02-01T16:24:32.791Z,5.99
2023-02-01T16:29:34.964Z,5.92
2023-02-01T16:34:37.940Z,5.94
2023-02-01T16:39:40.004Z,5.93
2023-02-01T16:44:42.163Z,5.98
2023-02-01T16:49:44.963Z,6.05
2023-02-01T16:54:47.056Z,6.02
2023-02-01T16:59:49.262Z,6.04
2023-02-01T17:04:51.199Z,5.92
2023-02-01T17:09:53.386Z,5.81
2023-02-01T17:14:55.335Z,5.63
2023-02-01T17:19:57.313Z,5.28
2023-02-01T17:24:59.467Z,4.86
2023-02-01T17:30:04.294Z,4.74
2023-02-01T17:35:14.796Z,4.59
2023-02-01T17:40:17.091Z,4.49
2023-02-01T17:45:37.625Z,4.55
2023-02-01T17:50:40.105Z,4.73
2023-02-01T17:55:45.262Z,4.89
2023-02-01T18:00:48.883Z,4.91
2023-02-01T18:05:53.705Z,4.90
2023-02-01T18:11:00.850Z,4.99
2023-02-01T18:16:04.668Z,4.99
2023-02-01T18:21:06.610Z,4.93
2023-02-01T18:26:12.155Z,5.00
2023-02-01T18:31:25.775Z,5.06
2023-02-01T18:36:31.333Z,5.05
2023-02-01T18:41:34.248Z,5.03
2023-02-01T18:46:36.207Z,4.99
2023-02-01T18:51:38.559Z,4.99
2023-02-01T18:56:40.495Z,5.03
2023-02-01T19:01:44.481Z,5.06
2023-02-01T19:06:46.941Z,5.01
2023-02-01T19:11:49.255Z,4.97
2023-02-01T19:16:51.262Z,4.98
2023-02-01T19:21:53.128Z,4.96
2023-02-01T19:26:55.286Z,4.92
2023-02-01T19:31:57.763Z,4.90
2023-02-01T19:37:00.887Z,5.00
2023-02-01T19:42:04.250Z,5.07
2023-02-01T19:47:06.347Z,5.14
2023-02-01T19:52:08.217Z,5.24
2023-02-01T19:57:10.184Z,5.30
2023-02-01T20:02:15.282Z,5.34
2023-02-01T20:07:17.206Z,5.40
2023-02-01T20:12:19.100Z,5.39
2023-02-01T20:17:20.937Z,5.43
2023-02-01T20:22:22.765Z,5.50
2023-02-01T20:27:26.205Z,5.50
2023-02-01T20:32:28.151Z,5.50
2023-02-01T20:37:30.207Z,5.57
2023-02-01T20:42:32.098Z,5.54
2023-02-01T20:47:34.015Z,5.48
2023-02-01T20:52:36.047Z,5.44
2023-02-01T20:57:37.987Z,5.46
2023-02-01T21:02:40.024Z,5.47
2023-02-01T21:07:42.127Z,5.50
2023-02-01T21:12:44.016Z,5.57
2023-02-01T21:17:45.842Z,5.57
2023-02-01T21:22:47.681Z,5.57
2023-02-01T21:27:49.588Z,5.60
2023-02-01T21:32:51.769Z,5.56
2023-02-01T21:37:53.641Z,5.56
2023-02-01T21:42:55.612Z,5.46
2023-02-01T21:47:57.558Z,5.42
2023-02-01T21:52:59.364Z,5.44
2023-02-01T21:58:01.256Z,5.51
2023-02-01T22:03:03.084Z,5.46
2023-02-01T22:08:05.267Z,5.44
2023-02-01T22:13:07.884Z,5.39
2023-02-01T22:18:09.825Z,5.29
2023-02-01T22:23:11.660Z,5.32
2023-02-01T22:28:33.013Z,5.27
2023-02-01T22:33:35.498Z,5.33
2023-02-01T22:38:37.413Z,5.45
2023-02-01T22:43:39.745Z,5.49
2023-02-01T22:48:43.265Z,5.58
2023-02-01T22:53:45.668Z,5.60
2023-02-01T22:58:47.467Z,5.52
2023-02-01T23:03:49.524Z,5.63
2023-02-01T23:08:58.168Z,5.63
2023-02-01T23:14:00.047Z,5.68
2023-02-01T23:19:02.371Z,5.60
2023-02-01T23:24:07.402Z,5.55
2023-02-01T23:29:16.130Z,5.47
2023-02-01T23:34:17.892Z,5.37
2023-02-01T23:39:19.639Z,5.34
2023-02-01T23:44:21.446Z,5.31
2023-02-01T23:49:23.219Z,5.28
2023-02-01T23:54:25.012Z,5.36
2023-02-01T23:59:26.965Z,5.39
